Time;durP1;ratioP1;P1;durP2;ratioP2;P2;SDS_P1;SDS_P2;PMS_P1;PMS_P2;Temp;Humidity;BMP_temperature;BMP_pressure;BME280_temperature;BME280_humidity;BME280_pressure;Samples;Min_cycle;Max_cycle;Signal;HPM_P1;HPM_P2
2021/10/31 00:01:23;;;;;;;19.60;12.55;;;;;;;7.36;72.51;100791.31;5104153;28;20058;-60
2021/10/31 00:03:48;;;;;;;20.95;11.95;;;;;;;7.31;72.61;100784.41;5101189;28;20032;-59
2021/10/31 00:06:14;;;;;;;18.35;12.13;;;;;;;7.30;72.14;100782.69;5078317;28;20039;-60
2021/10/31 00:08:40;;;;;;;20.10;12.32;;;;;;;7.32;72.05;100782.59;5107537;28;20027;-58
2021/10/31 00:11:06;;;;;;;19.90;12.57;;;;;;;7.31;72.18;100783.53;5095716;28;20027;-59
2021/10/31 00:13:32;;;;;;;18.20;11.40;;;;;;;7.32;72.00;100785.25;5102280;28;20143;-59
2021/10/31 00:15:58;;;;;;;18.08;12.57;;;;;;;7.28;71.89;100781.91;5102414;28;20035;-59
2021/10/31 00:18:24;;;;;;;20.33;12.70;;;;;;;7.32;71.83;100790.59;5094679;28;20024;-59
2021/10/31 00:20:50;;;;;;;17.65;11.60;;;;;;;7.32;71.38;100791.47;5107391;28;20368;-58
2021/10/31 00:23:16;;;;;;;20.98;13.07;;;;;;;7.12;71.20;100754.34;5096994;28;20039;-58
2021/10/31 00:25:41;;;;;;;18.67;12.85;;;;;;;7.30;71.66;100804.00;5100604;28;20031;-59
2021/10/31 00:28:07;;;;;;;20.30;12.30;;;;;;;7.29;71.66;100798.75;5085668;28;20235;-58
2021/10/31 00:30:32;;;;;;;19.83;13.07;;;;;;;7.28;71.62;100800.56;5093966;28;20387;-59
2021/10/31 00:32:58;;;;;;;18.98;13.10;;;;;;;7.27;71.34;100793.50;5089077;28;20426;-57
2021/10/31 00:35:23;;;;;;;21.50;13.25;;;;;;;7.25;71.52;100786.53;5097635;28;20023;-59
2021/10/31 00:37:49;;;;;;;19.75;13.10;;;;;;;7.21;71.70;100788.47;5099576;28;20056;-59
2021/10/31 00:40:15;;;;;;;18.90;12.85;;;;;;;7.12;71.55;100779.19;5105955;28;20032;-60
2021/10/31 00:42:41;;;;;;;19.05;13.13;;;;;;;7.16;71.59;100790.53;5091914;28;20043;-59
2021/10/31 00:45:07;;;;;;;20.90;12.80;;;;;;;7.12;71.60;100779.19;5105610;28;20020;-59
2021/10/31 00:47:35;;;;;;;21.33;12.88;;;;;;;7.09;71.55;100775.81;5099130;28;20076;-58
2021/10/31 00:50:01;;;;;;;22.08;12.82;;;;;;;7.08;71.68;100766.09;5097675;28;20024;-60
2021/10/31 00:52:31;;;;;;;16.85;12.07;;;;;;;7.07;71.81;100767.03;5106991;28;20424;-56
2021/10/31 00:54:58;;;;;;;18.38;12.10;;;;;;;7.03;71.79;100772.50;5101293;28;20023;-60
2021/10/31 00:57:24;;;;;;;23.70;13.00;;;;;;;6.99;71.82;100767.41;5121400;28;20019;-57
2021/10/31 00:59:50;;;;;;;18.48;11.77;;;;;;;7.00;71.66;100766.47;5099253;28;20506;-60
2021/10/31 01:02:16;;;;;;;18.17;12.10;;;;;;;6.74;71.32;100726.91;5104828;28;20020;-57
2021/10/31 01:04:53;;;;;;;18.90;11.65;;;;;;;7.02;71.39;100757.47;5093304;28;20027;-59
2021/10/31 01:07:32;;;;;;;17.85;11.40;;;;;;;7.01;71.09;100754.88;5105349;28;20092;-58
2021/10/31 01:10:20;;;;;;;16.27;11.15;;;;;;;7.03;70.88;100748.56;5105592;28;20038;-58
2021/10/31 01:13:00;;;;;;;19.38;11.77;;;;;;;6.98;70.90;100761.22;5106625;28;20556;-59
2021/10/31 01:15:52;;;;;;;16.05;10.88;;;;;;;7.02;70.89;100753.94;5112963;28;20058;-59
2021/10/31 01:18:39;;;;;;;17.80;11.38;;;;;;;7.01;70.97;100758.41;5113376;28;20040;-59
2021/10/31 01:21:20;;;;;;;17.23;11.48;;;;;;;6.93;70.63;100746.44;5108204;28;20023;-57
2021/10/31 01:24:12;;;;;;;19.15;11.20;;;;;;;7.00;70.29;100743.38;5103027;28;20059;-55
2021/10/31 01:26:52;;;;;;;17.65;11.40;;;;;;;6.97;70.46;100737.34;5111046;28;20054;-58
2021/10/31 01:29:45;;;;;;;20.75;12.10;;;;;;;7.00;70.33;100737.19;5113062;28;20026;-59
2021/10/31 01:32:40;;;;;;;17.23;11.13;;;;;;;6.99;70.38;100733.69;5113259;28;20460;-61
2021/10/31 01:35:55;;;;;;;18.52;10.95;;;;;;;7.01;70.23;100733.59;5108032;28;20048;-55
2021/10/31 01:38:48;;;;;;;15.80;10.75;;;;;;;6.95;69.80;100729.41;5060626;28;20427;-60
2021/10/31 01:41:31;;;;;;;15.50;10.80;;;;;;;6.87;69.52;100723.63;5124080;27;20058;-60
2021/10/31 01:44:02;;;;;;;16.70;10.88;;;;;;;6.80;69.31;100711.59;5104464;28;20686;-55
2021/10/31 01:46:35;;;;;;;16.10;10.35;;;;;;;6.91;69.45;100733.19;5112866;28;20360;-61
2021/10/31 01:49:22;;;;;;;18.48;10.88;;;;;;;6.88;69.46;100728.03;5079175;28;20092;-61
2021/10/31 01:51:55;;;;;;;16.63;10.35;;;;;;;6.91;69.13;100714.56;5104141;28;20035;-58
2021/10/31 01:54:36;;;;;;;15.77;9.98;;;;;;;6.91;69.08;100717.22;5112774;28;20032;-53
2021/10/31 01:57:06;;;;;;;15.88;11.23;;;;;;;6.80;68.96;100706.25;5109887;28;20024;-57
2021/10/31 01:59:39;;;;;;;16.35;11.18;;;;;;;6.84;69.06;100713.16;5104395;28;20057;-57
2021/10/31 02:02:07;;;;;;;17.58;10.88;;;;;;;6.86;68.66;100713.94;5105603;28;20145;-59
2021/10/31 02:04:35;;;;;;;17.83;10.88;;;;;;;6.82;68.69;100717.69;5094312;28;20387;-60
2021/10/31 02:07:02;;;;;;;17.77;11.18;;;;;;;6.78;68.70;100705.47;5096760;28;20042;-57
2021/10/31 02:09:31;;;;;;;17.48;10.70;;;;;;;6.76;68.64;100705.53;5105222;28;20024;-60
2021/10/31 02:11:58;;;;;;;16.60;10.57;;;;;;;6.71;68.99;100708.44;5085516;28;20479;-59
2021/10/31 02:14:25;;;;;;;19.60;11.40;;;;;;;6.69;68.90;100698.81;5097141;28;20036;-58
2021/10/31 02:16:55;;;;;;;19.77;12.55;;;;;;;6.66;69.05;100702.50;5109205;28;20114;-59
2021/10/31 02:19:24;;;;;;;20.13;12.65;;;;;;;6.61;69.13;100688.56;5080299;28;20081;-56
2021/10/31 02:22:00;;;;;;;21.27;14.13;;;;;;;6.66;69.02;100701.63;5101284;28;20032;-60
2021/10/31 02:24:26;;;;;;;21.73;13.48;;;;;;;6.62;68.79;100690.28;5108380;28;20067;-57
2021/10/31 02:26:52;;;;;;;24.13;13.82;;;;;;;6.58;68.87;100697.53;5095923;28;20039;-60
2021/10/31 02:29:18;;;;;;;21.70;12.90;;;;;;;6.59;68.71;100693.94;5106214;28;20119;-61
2021/10/31 02:31:45;;;;;;;21.30;13.18;;;;;;;6.58;68.84;100694.88;5101922;28;20032;-60
2021/10/31 02:34:10;;;;;;;20.13;13.13;;;;;;;6.52;68.64;100681.03;5098371;28;20508;-62
2021/10/31 02:36:37;;;;;;;21.30;12.55;;;;;;;6.58;68.79;100691.38;5091232;28;20027;-61
2021/10/31 02:39:07;;;;;;;22.00;12.75;;;;;;;6.62;68.63;100700.91;5097369;28;20348;-60
2021/10/31 02:41:35;;;;;;;19.27;12.45;;;;;;;6.61;68.43;100694.72;5103597;28;20156;-57
2021/10/31 02:44:01;;;;;;;18.60;11.75;;;;;;;6.62;68.47;100695.59;5104096;28;20053;-59
2021/10/31 02:46:30;;;;;;;18.58;12.25;;;;;;;6.67;68.07;100693.56;5096226;28;20032;-56
2021/10/31 02:48:56;;;;;;;16.80;11.95;;;;;;;6.69;68.12;100688.19;5108442;28;20031;-58
2021/10/31 02:51:41;;;;;;;19.95;11.63;;;;;;;6.67;67.98;100687.41;5098609;28;20023;-58
2021/10/31 02:54:19;;;;;;;17.40;11.32;;;;;;;6.69;67.89;100685.50;5080539;28;20118;-59
2021/10/31 02:56:55;;;;;;;16.48;11.52;;;;;;;6.73;67.49;100698.56;5108556;28;20074;-60
2021/10/31 02:59:47;;;;;;;20.15;11.55;;;;;;;6.72;67.62;100674.72;5098281;28;20041;-56
2021/10/31 03:02:14;;;;;;;18.00;11.80;;;;;;;6.73;67.17;100690.59;5097706;28;20024;-57
2021/10/31 03:04:40;;;;;;;17.60;11.23;;;;;;;6.69;67.39;100686.38;5108029;28;20028;-59
2021/10/31 03:07:06;;;;;;;17.58;11.40;;;;;;;6.66;67.29;100689.19;5096145;28;20028;-58
2021/10/31 03:09:31;;;;;;;15.73;10.98;;;;;;;6.67;67.04;100682.91;5103389;28;20085;-58
2021/10/31 03:12:02;;;;;;;17.17;10.75;;;;;;;6.66;67.30;100681.19;5102806;28;20066;-56
2021/10/31 03:14:27;;;;;;;18.45;10.63;;;;;;;6.65;67.30;100684.78;5095619;28;20036;-57
2021/10/31 03:16:53;;;;;;;16.23;10.35;;;;;;;6.64;67.45;100691.06;5107675;28;20054;-57
2021/10/31 03:19:20;;;;;;;14.65;10.10;;;;;;;6.56;67.67;100679.94;5097784;28;20055;-59
2021/10/31 03:21:45;;;;;;;14.52;10.50;;;;;;;6.56;68.04;100675.47;5101235;28;20429;-57
2021/10/31 03:24:11;;;;;;;14.80;9.85;;;;;;;6.59;67.67;100682.44;5105011;28;20059;-57
2021/10/31 03:26:36;;;;;;;14.95;9.63;;;;;;;6.57;67.85;100679.84;5094628;28;20115;-57
2021/10/31 03:29:02;;;;;;;15.43;9.95;;;;;;;6.52;67.79;100681.03;5107662;28;20104;-57
2021/10/31 03:31:28;;;;;;;16.95;10.30;;;;;;;6.50;68.16;100681.13;5098250;28;20035;-58
2021/10/31 03:33:53;;;;;;;16.15;10.38;;;;;;;6.50;68.36;100670.47;5099559;28;20028;-57
2021/10/31 03:36:18;;;;;;;14.30;9.45;;;;;;;6.50;68.56;100669.59;5106018;28;20113;-59
2021/10/31 03:38:44;;;;;;;15.77;10.13;;;;;;;6.47;68.20;100671.47;5095541;28;20018;-58
2021/10/31 03:41:09;;;;;;;15.60;10.45;;;;;;;6.44;68.55;100676.09;5105665;28;20112;-55
2021/10/31 03:43:35;;;;;;;15.50;10.07;;;;;;;6.45;68.41;100665.38;5099961;28;20035;-59
2021/10/31 03:46:01;;;;;;;14.85;9.48;;;;;;;6.41;68.62;100660.31;5098432;28;20033;-60
2021/10/31 03:48:26;;;;;;;14.98;9.63;;;;;;;6.41;68.51;100670.94;5106755;28;20028;-58
2021/10/31 03:50:52;;;;;;;14.00;9.75;;;;;;;6.38;68.60;100665.75;5094010;28;20043;-60
2021/10/31 03:53:17;;;;;;;16.17;9.63;;;;;;;6.35;68.85;100663.25;5105288;28;20020;-58
2021/10/31 03:55:43;;;;;;;16.88;9.57;;;;;;;6.30;68.98;100664.34;5100897;28;20418;-57
2021/10/31 03:58:08;;;;;;;15.13;9.90;;;;;;;6.26;68.75;100651.25;5097517;28;20027;-59
2021/10/31 04:00:34;;;;;;;15.88;9.38;;;;;;;6.28;68.77;100655.56;5107519;28;20040;-60
2021/10/31 04:02:59;;;;;;;14.23;9.23;;;;;;;6.27;68.32;100655.63;5095067;28;20439;-57
2021/10/31 04:05:25;;;;;;;14.50;9.35;;;;;;;6.07;68.28;100617.63;5103768;28;20034;-55
2021/10/31 04:07:50;;;;;;;16.25;9.90;;;;;;;6.23;68.80;100651.41;5082887;28;20085;-59
2021/10/31 04:10:16;;;;;;;18.15;10.25;;;;;;;6.26;68.46;100651.25;5096375;28;20032;-58
2021/10/31 04:12:42;;;;;;;13.60;9.30;;;;;;;6.23;68.34;100646.97;5107706;28;20471;-58
2021/10/31 04:15:08;;;;;;;14.57;9.40;;;;;;;6.23;68.28;100646.97;5095759;28;20114;-58
2021/10/31 04:17:34;;;;;;;16.90;9.80;;;;;;;6.18;68.21;100643.69;5101766;28;20452;-59
2021/10/31 04:20:00;;;;;;;13.68;9.27;;;;;;;6.25;68.56;100654.84;5102487;28;20047;-61
2021/10/31 04:22:29;;;;;;;14.50;9.63;;;;;;;6.24;68.30;100648.69;5077021;28;20078;-60
2021/10/31 04:24:55;;;;;;;17.23;9.90;;;;;;;6.25;68.43;100657.50;5107345;28;20016;-60
2021/10/31 04:27:21;;;;;;;15.20;9.57;;;;;;;6.24;68.35;100645.16;5096956;28;20028;-59
2021/10/31 04:29:46;;;;;;;15.13;9.88;;;;;;;6.22;68.18;100642.59;5099941;28;20032;-61
2021/10/31 04:32:12;;;;;;;15.90;10.27;;;;;;;6.28;68.16;100638.78;5104978;28;20032;-59
2021/10/31 04:34:37;;;;;;;14.65;9.85;;;;;;;6.25;68.06;100639.78;5094181;28;20051;-58
2021/10/31 04:37:03;;;;;;;14.93;9.82;;;;;;;6.30;67.52;100644.88;5106147;28;20020;-58
2021/10/31 04:39:29;;;;;;;17.40;10.10;;;;;;;6.24;68.00;100622.09;5081211;28;20027;-60
2021/10/31 04:42:01;;;;;;;18.55;9.88;;;;;;;6.32;67.61;100650.97;5100262;28;20028;-56
2021/10/31 04:44:27;;;;;;;19.17;10.45;;;;;;;6.35;67.41;100655.25;5110457;28;20031;-58
2021/10/31 04:46:53;;;;;;;15.68;9.82;;;;;;;6.30;67.74;100650.19;5097545;28;20028;-60
2021/10/31 04:49:18;;;;;;;15.18;9.88;;;;;;;6.37;67.39;100640.97;5089655;28;20038;-61
2021/10/31 04:51:44;;;;;;;14.98;10.48;;;;;;;6.40;67.58;100647.94;5104255;28;20035;-57
2021/10/31 04:54:10;;;;;;;19.15;10.52;;;;;;;6.22;67.38;100616.00;5100812;28;20028;-56
2021/10/31 04:56:35;;;;;;;18.48;10.55;;;;;;;6.41;67.02;100652.31;5092637;28;20038;-58
2021/10/31 04:59:01;;;;;;;16.35;10.10;;;;;;;6.47;67.54;100652.84;5097660;28;20024;-56
2021/10/31 05:01:26;;;;;;;17.27;11.00;;;;;;;6.50;67.31;100643.00;5106280;28;20035;-60
2021/10/31 05:03:52;;;;;;;18.52;11.20;;;;;;;6.54;67.24;100655.22;5105018;28;20445;-54
2021/10/31 05:06:17;;;;;;;17.35;10.88;;;;;;;7.24;65.86;100649.84;5099151;28;20035;-57
2021/10/31 05:08:43;;;;;;;19.02;11.25;;;;;;;8.69;60.94;100650.66;5110428;28;20083;-55
2021/10/31 05:11:09;;;;;;;23.90;11.23;;;;;;;10.05;56.69;100629.78;5099359;28;20080;-59
2021/10/31 05:13:34;;;;;;;17.15;10.25;;;;;;;10.97;53.59;100635.28;5104785;28;20036;-58
2021/10/31 05:16:00;;;;;;;18.58;12.10;;;;;;;11.55;51.30;100610.66;5105805;28;20055;-58
2021/10/31 05:18:26;;;;;;;16.95;10.20;;;;;;;12.75;48.67;100639.50;5097851;28;20082;-59
2021/10/31 05:20:52;;;;;;;19.48;11.00;;;;;;;13.97;45.59;100633.53;5110105;28;20486;-57
2021/10/31 05:23:17;;;;;;;17.10;10.77;;;;;;;14.64;43.66;100623.47;5081858;28;20488;-60
2021/10/31 05:25:43;;;;;;;17.63;10.13;;;;;;;15.71;41.28;100625.03;5103731;28;20137;-58
2021/10/31 05:28:08;;;;;;;14.98;10.40;;;;;;;17.10;38.26;100642.19;5106997;28;20084;-59
2021/10/31 05:30:34;;;;;;;17.50;10.60;;;;;;;18.15;35.62;100594.09;5097115;28;20135;-57
2021/10/31 05:32:59;;;;;;;18.88;10.93;;;;;;;19.49;33.28;100626.56;5109734;28;20043;-57
2021/10/31 05:35:25;;;;;;;15.48;10.85;;;;;;;20.55;31.44;100621.56;5100648;28;20386;-60
2021/10/31 05:37:57;;;;;;;16.35;10.90;;;;;;;21.33;29.86;100622.00;5101927;28;20035;-60
2021/10/31 05:40:24;;;;;;;18.55;11.52;;;;;;;22.13;28.64;100610.22;5110056;28;20118;-61
2021/10/31 05:42:50;;;;;;;20.45;12.20;;;;;;;22.86;27.16;100612.53;5096219;28;20028;-60
2021/10/31 05:45:15;;;;;;;17.08;11.60;;;;;;;23.52;26.12;100600.91;5107335;28;20467;-61
2021/10/31 05:47:44;;;;;;;18.27;12.73;;;;;;;24.54;25.44;100619.28;5102720;28;20023;-61
2021/10/31 05:50:13;;;;;;;15.48;11.20;;;;;;;25.32;24.13;100619.28;5081690;28;20032;-60
2021/10/31 05:52:39;;;;;;;17.48;12.40;;;;;;;25.78;22.71;100606.00;5109452;28;20360;-58
2021/10/31 05:55:07;;;;;;;15.23;12.10;;;;;;;26.41;21.83;100618.63;5079055;28;20383;-60
2021/10/31 05:57:32;;;;;;;20.77;11.95;;;;;;;26.85;20.77;100607.25;5104728;28;20061;-61
2021/10/31 05:59:58;;;;;;;17.77;12.27;;;;;;;27.37;20.29;100610.94;5104602;28;20035;-60
2021/10/31 06:02:23;;;;;;;14.93;12.23;;;;;;;27.93;19.49;100611.34;5097237;28;20098;-59
2021/10/31 06:04:49;;;;;;;14.48;11.77;;;;;;;28.43;18.50;100589.69;5109478;28;20023;-57
2021/10/31 06:07:15;;;;;;;18.50;12.07;;;;;;;28.82;17.99;100590.44;5099085;28;20459;-61
2021/10/31 06:09:40;;;;;;;14.57;11.75;;;;;;;29.42;17.89;100602.75;5103061;28;20035;-61
2021/10/31 06:12:08;;;;;;;16.48;12.27;;;;;;;29.86;17.63;100610.06;5087416;28;20047;-63
2021/10/31 06:14:37;;;;;;;17.48;12.05;;;;;;;30.49;17.42;100605.94;5077720;28;20157;-61
2021/10/31 06:17:03;;;;;;;15.70;11.82;;;;;;;30.61;16.25;100611.53;5108927;28;20020;-61
2021/10/31 06:19:31;;;;;;;14.38;12.25;;;;;;;31.14;16.13;100611.63;5100453;28;20027;-61
2021/10/31 06:21:56;;;;;;;14.85;12.50;;;;;;;31.55;15.23;100603.41;5100657;28;20028;-61
2021/10/31 06:24:22;;;;;;;15.40;11.77;;;;;;;31.74;14.22;100579.16;5089410;28;20456;-61
2021/10/31 06:26:47;;;;;;;15.75;11.63;;;;;;;32.21;14.03;100583.63;5096045;28;20027;-61
2021/10/31 06:29:13;;;;;;;14.98;12.00;;;;;;;32.37;13.86;100597.78;5106931;28;20377;-61
2021/10/31 06:31:39;;;;;;;15.52;12.43;;;;;;;32.40;14.06;100605.59;5101693;28;20038;-63
2021/10/31 06:34:05;;;;;;;13.68;11.02;;;;;;;32.48;13.59;100609.88;5099309;28;20392;-62
2021/10/31 06:36:31;;;;;;;12.50;10.93;;;;;;;32.51;13.78;100603.84;5074216;28;20032;-61
2021/10/31 06:38:56;;;;;;;13.32;11.93;;;;;;;32.77;13.47;100607.84;5096513;28;20024;-61
2021/10/31 06:41:22;;;;;;;15.13;12.15;;;;;;;33.20;12.95;100610.16;5086758;28;20028;-60
2021/10/31 06:43:48;;;;;;;13.45;11.00;;;;;;;33.33;12.80;100614.47;5102127;28;20031;-61
2021/10/31 06:46:14;;;;;;;15.10;11.57;;;;;;;33.39;12.43;100609.84;5097884;28;20028;-61
2021/10/31 06:48:39;;;;;;;13.23;11.85;;;;;;;33.48;12.90;100611.09;5109135;28;20123;-61
2021/10/31 06:51:05;;;;;;;12.43;11.13;;;;;;;33.64;12.29;100609.34;5096194;28;20467;-62
2021/10/31 06:53:30;;;;;;;14.48;11.43;;;;;;;33.55;12.52;100589.56;5103563;28;20479;-60
2021/10/31 06:55:56;;;;;;;14.93;11.60;;;;;;;33.62;12.49;100622.66;5102868;28;20028;-61
2021/10/31 06:58:22;;;;;;;13.70;11.50;;;;;;;33.44;12.67;100616.34;5096132;28;20476;-61
2021/10/31 07:00:47;;;;;;;14.82;11.25;;;;;;;33.21;12.48;100615.47;5108292;28;20466;-62
2021/10/31 07:03:13;;;;;;;16.23;12.15;;;;;;;33.13;12.94;100620.59;5097197;28;20020;-61
2021/10/31 07:05:38;;;;;;;15.57;11.55;;;;;;;32.96;12.96;100609.56;5084176;28;20528;-62
2021/10/31 07:08:04;;;;;;;15.73;12.18;;;;;;;32.75;12.70;100611.97;5104150;28;20023;-60
2021/10/31 07:10:30;;;;;;;14.95;11.68;;;;;;;32.61;12.89;100608.72;5094772;28;20046;-60
2021/10/31 07:12:55;;;;;;;14.17;11.63;;;;;;;32.45;12.77;100624.25;5059993;28;1219003;-59
2021/10/31 07:15:21;;;;;;;17.48;11.73;;;;;;;31.98;13.23;100617.00;5069144;28;20284;-62
2021/10/31 07:17:46;;;;;;;15.00;12.40;;;;;;;31.61;13.96;100626.50;5101004;28;20032;-60
2021/10/31 07:20:13;;;;;;;14.50;11.75;;;;;;;30.97;14.38;100621.75;5097585;28;20028;-62
2021/10/31 07:22:41;;;;;;;17.35;12.75;;;;;;;29.55;15.68;100626.56;5108055;28;20110;-62
2021/10/31 07:25:08;;;;;;;15.82;12.52;;;;;;;27.35;17.71;100629.56;5096178;28;20142;-60
2021/10/31 07:27:34;;;;;;;18.33;13.48;;;;;;;24.73;20.40;100626.00;5102881;28;20460;-60
2021/10/31 07:29:59;;;;;;;15.80;12.80;;;;;;;22.37;23.20;100633.75;5102971;28;20465;-60
2021/10/31 07:32:25;;;;;;;17.88;12.38;;;;;;;20.42;25.79;100630.25;5095391;28;20497;-61
2021/10/31 07:34:51;;;;;;;18.10;13.70;;;;;;;18.78;28.40;100623.94;5107947;28;20023;-62
2021/10/31 07:37:17;;;;;;;16.80;12.52;;;;;;;17.42;30.16;100630.97;5097264;28;20055;-59
2021/10/31 07:39:43;;;;;;;18.08;12.88;;;;;;;16.03;32.87;100642.06;5110525;28;20028;-61
2021/10/31 07:42:09;;;;;;;18.73;12.70;;;;;;;14.84;35.11;100627.22;5097627;28;20051;-59
2021/10/31 07:44:35;;;;;;;21.98;12.90;;;;;;;14.06;36.98;100625.56;5089603;28;20040;-60
2021/10/31 07:47:00;;;;;;;18.45;11.68;;;;;;;13.50;38.44;100629.19;5094398;28;20023;-58
2021/10/31 07:49:26;;;;;;;16.02;11.57;;;;;;;13.07;39.40;100637.00;5103146;28;20040;-61
2021/10/31 07:51:52;;;;;;;22.98;12.80;;;;;;;12.76;40.57;100642.03;5101744;28;20106;-60
2021/10/31 07:54:23;;;;;;;19.15;12.13;;;;;;;12.45;41.46;100635.50;5096380;28;20127;-62
2021/10/31 07:56:50;;;;;;;19.08;12.35;;;;;;;12.20;42.20;100631.97;5107189;28;20055;-61
2021/10/31 07:59:17;;;;;;;17.80;11.82;;;;;;;11.87;42.62;100620.91;5096796;28;20028;-62
2021/10/31 08:01:42;;;;;;;18.80;11.60;;;;;;;11.64;42.62;100598.41;5100777;28;20035;-62
2021/10/31 08:04:08;;;;;;;17.95;11.73;;;;;;;11.83;43.19;100646.25;5104312;28;20024;-61
2021/10/31 08:06:34;;;;;;;17.63;11.43;;;;;;;11.85;43.13;100647.00;5093584;28;20080;-61
2021/10/31 08:08:59;;;;;;;16.95;12.00;;;;;;;11.58;43.56;100610.47;5106608;28;20028;-59
2021/10/31 08:11:25;;;;;;;21.13;11.32;;;;;;;11.88;44.05;100649.44;5098226;28;20379;-60
2021/10/31 08:13:50;;;;;;;19.50;12.20;;;;;;;12.04;43.75;100635.78;5099442;28;20415;-61
2021/10/31 08:16:16;;;;;;;17.73;11.10;;;;;;;12.18;42.97;100644.66;5104903;28;20536;-61
2021/10/31 08:18:42;;;;;;;18.90;11.48;;;;;;;11.91;43.08;100610.78;5097516;28;20040;-62
2021/10/31 08:21:09;;;;;;;17.85;12.13;;;;;;;11.99;43.32;100655.84;5092025;28;20031;-58
2021/10/31 08:23:35;;;;;;;22.25;11.55;;;;;;;11.83;43.81;100640.00;5103505;28;20031;-58
2021/10/31 08:26:01;;;;;;;21.38;11.50;;;;;;;11.67;44.45;100640.28;5102174;28;20043;-61
2021/10/31 08:28:27;;;;;;;18.75;11.65;;;;;;;11.61;44.95;100663.03;5110326;28;20396;-61
2021/10/31 08:30:59;;;;;;;18.50;10.30;;;;;;;11.38;45.15;100643.22;5098057;28;20035;-58
2021/10/31 08:33:34;;;;;;;19.17;11.40;;;;;;;11.29;45.48;100664.34;5107823;28;20398;-56
2021/10/31 08:36:01;;;;;;;19.42;11.40;;;;;;;11.11;46.56;100671.84;5106392;28;20080;-56
2021/10/31 08:38:27;;;;;;;18.98;12.02;;;;;;;11.00;46.67;100653.84;5080194;28;20028;-60
2021/10/31 08:40:54;;;;;;;19.73;11.63;;;;;;;10.96;46.83;100651.47;5111935;28;20058;-59
2021/10/31 08:43:19;;;;;;;21.25;11.35;;;;;;;10.95;46.96;100650.63;5101135;28;20098;-61
2021/10/31 08:45:46;;;;;;;19.83;11.85;;;;;;;10.97;47.15;100647.81;5069016;28;20059;-60
2021/10/31 08:48:13;;;;;;;21.08;12.07;;;;;;;11.04;46.72;100660.69;5107883;28;20032;-59
2021/10/31 08:50:39;;;;;;;19.77;11.40;;;;;;;11.00;46.98;100656.50;5097121;28;20071;-60
2021/10/31 08:53:06;;;;;;;19.00;12.00;;;;;;;10.99;47.36;100649.44;5091368;28;20059;-60
2021/10/31 08:55:32;;;;;;;20.45;11.48;;;;;;;11.08;47.25;100649.75;5102129;28;20107;-60
2021/10/31 08:57:57;;;;;;;17.80;10.77;;;;;;;11.37;46.90;100649.56;5083188;28;20218;-54
2021/10/31 09:00:23;;;;;;;16.15;10.00;;;;;;;11.64;45.99;100660.13;5109658;28;20035;-59
2021/10/31 09:02:50;;;;;;;17.00;10.50;;;;;;;11.82;45.45;100651.72;5096968;28;20032;-61
2021/10/31 09:05:15;;;;;;;17.15;10.30;;;;;;;12.00;44.85;100652.19;5108015;28;20047;-62
2021/10/31 09:07:40;;;;;;;17.73;10.07;;;;;;;11.91;44.86;100657.25;5084810;28;20535;-64
2021/10/31 09:10:06;;;;;;;19.67;10.52;;;;;;;11.66;44.94;100654.66;5100823;28;20118;-61
2021/10/31 09:12:32;;;;;;;20.67;10.45;;;;;;;11.38;46.13;100652.09;5091711;28;20039;-60
2021/10/31 09:14:58;;;;;;;18.73;10.43;;;;;;;11.16;46.53;100636.69;5097461;28;20097;-60
2021/10/31 09:17:23;;;;;;;18.55;10.23;;;;;;;11.08;46.80;100649.75;5106355;28;20030;-61
2021/10/31 09:19:49;;;;;;;19.15;10.98;;;;;;;11.00;47.12;100642.28;5103959;28;20046;-59
2021/10/31 09:22:15;;;;;;;18.80;10.57;;;;;;;11.00;47.45;100648.47;5099467;28;20032;-55
2021/10/31 09:24:40;;;;;;;17.25;10.50;;;;;;;11.02;47.21;100641.19;5110158;28;20403;-64
2021/10/31 09:27:06;;;;;;;15.82;9.73;;;;;;;11.02;47.11;100634.97;5098359;28;20030;-58
2021/10/31 09:29:31;;;;;;;16.55;9.70;;;;;;;10.99;47.71;100641.41;5104978;28;20031;-59
2021/10/31 09:31:58;;;;;;;17.20;10.65;;;;;;;11.03;47.44;100642.91;5105095;28;20467;-58
2021/10/31 09:34:24;;;;;;;18.30;11.10;;;;;;;10.98;47.49;100645.03;5097296;28;20039;-61
2021/10/31 09:36:50;;;;;;;19.05;10.60;;;;;;;10.93;47.23;100641.84;5110043;28;20454;-61
2021/10/31 09:39:16;;;;;;;21.20;9.98;;;;;;;10.71;47.83;100627.22;5100311;28;20051;-58
2021/10/31 09:41:42;;;;;;;20.67;10.95;;;;;;;10.55;48.28;100632.78;5085099;28;20464;-58
2021/10/31 09:44:16;;;;;;;20.05;10.32;;;;;;;10.46;48.56;100633.38;5106504;28;20106;-60
2021/10/31 09:46:43;;;;;;;17.02;10.13;;;;;;;10.42;48.58;100647.94;5096259;28;20455;-63
2021/10/31 09:49:10;;;;;;;16.23;9.93;;;;;;;10.30;48.42;100644.22;5108648;28;20115;-62
2021/10/31 09:51:36;;;;;;;19.58;10.15;;;;;;;10.11;49.09;100645.44;5101858;28;20058;-61
2021/10/31 09:54:02;;;;;;;17.63;9.88;;;;;;;9.92;49.44;100645.78;5099718;28;20027;-59
2021/10/31 09:56:28;;;;;;;15.82;9.45;;;;;;;9.76;50.21;100644.09;5109105;28;20024;-63
2021/10/31 09:58:59;;;;;;;18.02;9.18;;;;;;;9.66;50.26;100647.47;5096221;28;20034;-59
2021/10/31 10:01:57;;;;;;;17.98;9.45;;;;;;;9.67;49.65;100644.69;5105369;28;20067;-63
2021/10/31 10:04:34;;;;;;;16.73;9.65;;;;;;;9.55;49.90;100638.31;5108002;28;20027;-60
2021/10/31 10:07:03;;;;;;;17.90;9.50;;;;;;;9.36;50.97;100641.28;5096321;28;20543;-60
2021/10/31 10:09:30;;;;;;;18.38;9.27;;;;;;;9.30;51.14;100645.19;5104739;28;20077;-60
2021/10/31 10:11:58;;;;;;;16.77;9.70;;;;;;;9.19;51.34;100650.38;5103764;28;20028;-60
2021/10/31 10:14:28;;;;;;;20.50;9.63;;;;;;;9.18;51.32;100640.63;5096641;28;20059;-56
2021/10/31 10:17:00;;;;;;;15.65;9.00;;;;;;;9.15;51.23;100630.09;5108958;28;20486;-61
2021/10/31 10:19:44;;;;;;;13.63;8.57;;;;;;;8.85;51.90;100588.31;5100076;28;20454;-57
2021/10/31 10:22:13;;;;;;;15.57;9.35;;;;;;;8.91;52.11;100611.97;5098874;28;20031;-62
2021/10/31 10:24:48;;;;;;;14.52;8.88;;;;;;;8.92;52.24;100623.53;5108911;28;20059;-59
2021/10/31 10:27:14;;;;;;;15.07;9.27;;;;;;;8.76;53.26;100611.09;5098060;28;20392;-62
2021/10/31 10:29:41;;;;;;;14.77;8.35;;;;;;;8.79;53.32;100607.38;5102886;28;20061;-63
2021/10/31 10:32:20;;;;;;;17.45;8.65;;;;;;;8.80;53.51;100601.09;5086883;28;20483;-57
2021/10/31 10:34:56;;;;;;;14.23;8.82;;;;;;;8.85;53.22;100604.34;5076709;28;20024;-60
2021/10/31 10:37:22;;;;;;;17.23;8.68;;;;;;;8.87;52.79;100591.75;5087155;28;20120;-61
2021/10/31 10:40:15;;;;;;;15.55;8.73;;;;;;;8.97;53.10;100586.69;5102472;28;20511;-61
2021/10/31 10:42:55;;;;;;;14.77;8.13;;;;;;;8.93;52.75;100585.19;5095236;28;20036;-62
2021/10/31 10:45:31;;;;;;;12.27;7.57;;;;;;;8.97;52.24;100586.69;5105396;28;20368;-62
2021/10/31 10:47:59;;;;;;;13.30;7.80;;;;;;;8.84;52.83;100576.78;5103503;28;20035;-62
2021/10/31 10:50:29;;;;;;;16.17;8.63;;;;;;;8.85;53.17;100586.50;5096323;28;20032;-58
2021/10/31 10:52:56;;;;;;;15.55;8.65;;;;;;;8.83;53.10;100579.53;5108534;28;20020;-58
2021/10/31 10:55:25;;;;;;;14.40;8.38;;;;;;;8.81;53.30;100566.31;5098563;28;20455;-62
2021/10/31 10:57:54;;;;;;;15.15;8.65;;;;;;;8.83;53.30;100568.84;5100522;28;20063;-59
2021/10/31 11:00:34;;;;;;;14.02;8.63;;;;;;;8.88;53.23;100554.28;5106500;28;20035;-62
2021/10/31 11:03:08;;;;;;;15.63;8.77;;;;;;;8.88;53.09;100554.28;5095700;28;20027;-61
2021/10/31 11:05:48;;;;;;;16.23;8.65;;;;;;;8.89;53.27;100547.09;5084643;28;20035;-62
2021/10/31 11:08:24;;;;;;;20.55;8.95;;;;;;;8.83;53.51;100531.47;5087759;28;20348;-62
2021/10/31 11:10:54;;;;;;;17.02;8.63;;;;;;;8.99;53.11;100544.72;5094922;28;20028;-62
2021/10/31 11:13:20;;;;;;;14.60;7.82;;;;;;;8.99;52.80;100548.28;5105043;28;20051;-60
2021/10/31 11:15:45;;;;;;;14.85;8.38;;;;;;;8.98;52.76;100535.00;5101457;28;20031;-59
2021/10/31 11:18:11;;;;;;;16.13;8.40;;;;;;;9.04;52.83;100540.81;5098047;28;20059;-63
2021/10/31 11:20:41;;;;;;;11.63;7.75;;;;;;;9.14;51.90;100538.44;5108182;28;20042;-59
2021/10/31 11:23:10;;;;;;;13.73;8.32;;;;;;;9.20;52.10;100542.53;5096570;28;20058;-60